Map

Track Data

SID SEASON NUMBER BASIN SUBBASIN NAME ISO_TIME NATURE LAT LON WMO_WIND WMO_PRES WMO_AGENCY TRACK_TYPE DIST2LAND LANDFALL IFLAG USA_AGENCY USA_ATCF_ID USA_LAT USA_LON USA_RECORD USA_STATUS USA_WIND USA_PRES USA_SSHS USA_R34_NE USA_R34_SE USA_R34_SW USA_R34_NW USA_R50_NE USA_R50_SE USA_R50_SW USA_R50_NW USA_R64_NE USA_R64_SE USA_R64_SW USA_R64_NW USA_POCI USA_ROCI USA_RMW USA_EYE TOKYO_LAT TOKYO_LON TOKYO_GRADE TOKYO_WIND TOKYO_PRES TOKYO_R50_DIR TOKYO_R50_LONG TOKYO_R50_SHORT TOKYO_R30_DIR TOKYO_R30_LONG TOKYO_R30_SHORT TOKYO_LAND CMA_LAT CMA_LON CMA_CAT CMA_WIND CMA_PRES HKO_LAT HKO_LON HKO_CAT HKO_WIND HKO_PRES NEWDELHI_LAT NEWDELHI_LON NEWDELHI_GRADE NEWDELHI_WIND NEWDELHI_PRES NEWDELHI_CI NEWDELHI_DP NEWDELHI_POCI REUNION_LAT REUNION_LON REUNION_TYPE REUNION_WIND REUNION_PRES REUNION_TNUM REUNION_CI REUNION_RMW REUNION_R34_NE REUNION_R34_SE REUNION_R34_SW REUNION_R34_NW REUNION_R50_NE REUNION_R50_SE REUNION_R50_SW REUNION_R50_NW REUNION_R64_NE REUNION_R64_SE REUNION_R64_SW REUNION_R64_NW BOM_LAT BOM_LON BOM_TYPE BOM_WIND BOM_PRES BOM_TNUM BOM_CI BOM_RMW BOM_R34_NE BOM_R34_SE BOM_R34_SW BOM_R34_NW BOM_R50_NE BOM_R50_SE BOM_R50_SW BOM_R50_NW BOM_R64_NE BOM_R64_SE BOM_R64_SW BOM_R64_NW BOM_ROCI BOM_POCI BOM_EYE BOM_POS_METHOD BOM_PRES_METHOD NADI_LAT NADI_LON NADI_CAT NADI_WIND NADI_PRES WELLINGTON_LAT WELLINGTON_LON WELLINGTON_WIND WELLINGTON_PRES DS824_LAT DS824_LON DS824_STAGE DS824_WIND DS824_PRES TD9636_LAT TD9636_LON TD9636_STAGE TD9636_WIND TD9636_PRES TD9635_LAT TD9635_LON TD9635_WIND TD9635_PRES TD9635_ROCI NEUMANN_LAT NEUMANN_LON NEUMANN_CLASS NEUMANN_WIND NEUMANN_PRES MLC_LAT MLC_LON MLC_CLASS MLC_WIND MLC_PRES USA_GUST BOM_GUST BOM_GUST_PER REUNION_GUST REUNION_GUST_PER USA_SEAHGT USA_SEARAD_NE USA_SEARAD_SE USA_SEARAD_SW USA_SEARAD_NW STORM_SPEED STORM_DIR
1869039S19053 1869 2 SI MM NOT_NAMED 1869-02-08 06:00:00 NR -18.7000 53.3000 main 331 321 __________O___ -1 -18.7000 53.3000 7 7 219
1869039S19053 1869 2 SI MM NOT_NAMED 1869-02-08 09:00:00 NR -18.9612 53.0741 main 320 320 __________P___ -1 -18.9612 53.0741 7 7 220
1869039S19053 1869 2 SI MM NOT_NAMED 1869-02-08 12:00:00 NR -19.2178 52.8482 main 328 321 __________P___ -1 -19.2178 52.8482 7 7 220
1869039S19053 1869 2 SI MM NOT_NAMED 1869-02-08 15:00:00 NR -19.4655 52.6233 main 324 324 __________P___ -1 -19.4655 52.6233 7 6 221
1869039S19053 1869 2 SI MM NOT_NAMED 1869-02-08 18:00:00 NR -19.7000 52.4000 main 331 325 __________O___ -1 -19.7000 52.4000 7 6 223
1869039S19053 1869 2 SI MM NOT_NAMED 1869-02-08 21:00:00 NR -19.9199 52.1786 main 340 327 __________P___ -1 -19.9199 52.1786 7 6 224
1869039S19053 1869 2 SI MM NOT_NAMED 1869-02-09 00:00:00 NR -20.1348 51.9569 main 327 304 __________P___ -1 -20.1348 51.9569 7 6 224
1869039S19053 1869 2 SI MM NOT_NAMED 1869-02-09 03:00:00 NR -20.3574 51.7317 main 305 289 __________P___ -1 -20.3574 51.7317 7 6 223
1869039S19053 1869 2 SI MM NOT_NAMED 1869-02-09 06:00:00 NR -20.6000 51.5000 main 289 275 __________O___ -1 -20.6000 51.5000 7 7 221
1869039S19053 1869 2 SI MM NOT_NAMED 1869-02-09 09:00:00 NR -20.8784 51.2531 main 279 259 __________P___ -1 -20.8784 51.2531 7 7 219
1869039S19053 1869 2 SI MM NOT_NAMED 1869-02-09 12:00:00 NR -21.1775 51.0000 main 264 252 __________P___ -1 -21.1775 51.0000 7 8 218
1869039S19053 1869 2 SI MM NOT_NAMED 1869-02-09 15:00:00 NR -21.4878 50.7468 main 244 229 __________P___ -1 -21.4878 50.7468 7 8 217
1869039S19053 1869 2 SI MM NOT_NAMED 1869-02-09 18:00:00 NR -21.8000 50.5000 main 231 217 __________O___ -1 -21.8000 50.5000 7 8 216
1869039S19053 1869 2 SI MM NOT_NAMED 1869-02-09 21:00:00 NR -22.1121 50.2556 main 219 197 __________P___ -1 -22.1121 50.2556 7 8 216
1869039S19053 1869 2 SI MM NOT_NAMED 1869-02-10 00:00:00 NR -22.4225 50.0200 main 197 191 __________P___ -1 -22.4225 50.0200 7 7 215
1869039S19053 1869 2 SI MM NOT_NAMED 1869-02-10 03:00:00 NR -22.7215 49.7994 main 191 179 __________P___ -1 -22.7215 49.7994 7 7 214
1869039S19053 1869 2 SI MM NOT_NAMED 1869-02-10 06:00:00 NR -23.0000 49.6000 main 183 167 __________O___ -1 -23.0000 49.6000 7 6 213
1869039S19053 1869 2 SI MM NOT_NAMED 1869-02-10 09:00:00 NR -23.2504 49.4280 main 169 163 __________P___ -1 -23.2504 49.4280 7 6 212
1869039S19053 1869 2 SI MM NOT_NAMED 1869-02-10 12:00:00 NR -23.4798 49.2769 main 163 146 __________P___ -1 -23.4798 49.2769 7 5 211
1869039S19053 1869 2 SI MM NOT_NAMED 1869-02-10 15:00:00 NR -23.6942 49.1374 main 146 139 __________P___ -1 -23.6942 49.1374 7 5 211
1869039S19053 1869 2 SI MM NOT_NAMED 1869-02-10 18:00:00 NR -23.9000 49.0000 main 143 139 __________O___ -1 -23.9000 49.0000 7 5 213
1869039S19053 1869 2 SI MM NOT_NAMED 1869-02-10 21:00:00 NR -24.0990 48.8498 main 132 123 __________P___ -1 -24.0990 48.8498 7 5 215
1869039S19053 1869 2 SI MM NOT_NAMED 1869-02-11 00:00:00 NR -24.2924 48.6997 main 126 120 __________P___ -1 -24.2924 48.6997 7 5 215
1869039S19053 1869 2 SI MM NOT_NAMED 1869-02-11 03:00:00 NR -24.4896 48.5497 main 115 110 __________P___ -1 -24.4896 48.5497 7 5 214
1869039S19053 1869 2 SI MM NOT_NAMED 1869-02-11 06:00:00 NR -24.7000 48.4000 main 113 106 __________O___ -1 -24.7000 48.4000 7 5 212
1869039S19053 1869 2 SI MM NOT_NAMED 1869-02-11 09:00:00 NR -24.9356 48.2459 main 101 101 __________P___ -1 -24.9356 48.2459 7 6 210
1869039S19053 1869 2 SI MM NOT_NAMED 1869-02-11 12:00:00 NR -25.1850 48.0925 main 103 96 __________P___ -1 -25.1850 48.0925 7 6 209
1869039S19053 1869 2 SI MM NOT_NAMED 1869-02-11 15:00:00 NR -25.4419 47.9428 main 92 92 __________P___ -1 -25.4419 47.9428 7 6 207
1869039S19053 1869 2 SI MM NOT_NAMED 1869-02-11 18:00:00 NR -25.7000 47.8000 main 104 104 __________O___ -1 -25.7000 47.8000 7 6 206
1869039S19053 1869 2 SI MM NOT_NAMED 1869-02-11 21:00:00 NR -25.9544 47.6664 main 122 117 __________P___ -1 -25.9544 47.6664 7 6 205
1869039S19053 1869 2 SI MM NOT_NAMED 1869-02-12 00:00:00 NR -26.2050 47.5403 main 131 131 __________P___ -1 -26.2050 47.5403 7 5 204
1869039S19053 1869 2 SI MM NOT_NAMED 1869-02-12 03:00:00 NR -26.4532 47.4191 main 157 157 __________P___ -1 -26.4532 47.4191 7 5 204
1869039S19053 1869 2 SI MM NOT_NAMED 1869-02-12 06:00:00 NR -26.7000 47.3000 main 174 __________O___ -1 -26.7000 47.3000 7 5 203

About IBTrACS Database

This database is a web-friendly format of International Best Track Archive for Climate Stewardship (IBTrACS), a global best track data archive curated by NOAA dating back to 1842.

Updated: 2021-12-06